createdAt,value
2019-04-30T00:01:17.056Z,7.31
2019-04-30T00:03:41.970Z,7.41
2019-04-30T00:06:10.544Z,7.26
2019-04-30T00:08:39.347Z,7.30
2019-04-30T00:11:10.958Z,7.15
2019-04-30T00:13:38.179Z,7.00
2019-04-30T00:16:06.690Z,7.20
2019-04-30T00:18:39.396Z,7.09
2019-04-30T00:21:05.652Z,7.10
2019-04-30T00:23:36.021Z,7.05
2019-04-30T00:26:09.500Z,7.09
2019-04-30T00:28:35.424Z,7.13
2019-04-30T00:31:05.495Z,7.11
2019-04-30T00:33:35.393Z,6.96
2019-04-30T00:36:05.017Z,6.90
2019-04-30T00:38:37.690Z,6.78
2019-04-30T00:41:06.943Z,6.80
2019-04-30T00:43:35.338Z,6.63
2019-04-30T00:46:05.109Z,6.63
2019-04-30T00:48:35.577Z,6.36
2019-04-30T00:51:07.570Z,6.19
2019-04-30T00:53:35.816Z,6.14
2019-04-30T00:56:05.678Z,6.16
2019-04-30T00:58:35.640Z,6.10
2019-04-30T01:01:16.471Z,5.99
2019-04-30T01:03:52.416Z,5.91
2019-04-30T01:06:26.765Z,5.88
2019-04-30T01:08:51.176Z,5.89
2019-04-30T01:11:19.793Z,6.05
2019-04-30T01:13:50.974Z,6.14
2019-04-30T01:16:19.550Z,5.93
2019-04-30T01:18:49.173Z,6.03
2019-04-30T01:21:18.507Z,6.05
2019-04-30T01:23:51.796Z,5.97
2019-04-30T01:26:18.740Z,5.81
2019-04-30T01:28:49.382Z,5.68
2019-04-30T01:31:18.772Z,5.82
2019-04-30T01:33:48.930Z,5.91
2019-04-30T01:36:19.186Z,5.88
2019-04-30T01:38:51.072Z,6.05
2019-04-30T01:41:20.244Z,6.03
2019-04-30T01:43:48.715Z,5.90
2019-04-30T01:46:18.924Z,5.86
2019-04-30T01:48:48.666Z,6.16
2019-04-30T01:51:21.671Z,6.00
2019-04-30T01:53:48.500Z,5.89
2019-04-30T01:56:28.946Z,6.00
2019-04-30T01:58:59.496Z,5.88
2019-04-30T02:01:31.205Z,6.01
2019-04-30T02:03:59.808Z,5.87
2019-04-30T02:06:29.421Z,5.86
2019-04-30T02:08:59.362Z,5.69
2019-04-30T02:11:28.881Z,5.81
2019-04-30T02:13:59.096Z,5.81
2019-04-30T02:16:28.971Z,5.64
2019-04-30T02:18:59.542Z,5.62
2019-04-30T02:21:29.902Z,5.62
2019-04-30T02:23:58.901Z,5.64
2019-04-30T02:26:28.649Z,5.51
2019-04-30T02:28:59.327Z,5.50
2019-04-30T02:31:30.717Z,5.44
2019-04-30T02:34:00.411Z,5.50
2019-04-30T02:36:36.378Z,5.55
2019-04-30T02:39:06.113Z,5.48
2019-04-30T02:41:36.025Z,5.46
2019-04-30T02:44:05.840Z,5.36
2019-04-30T02:46:34.955Z,5.40
2019-04-30T02:49:06.189Z,5.35
2019-04-30T02:51:39.755Z,5.28
2019-04-30T02:54:10.942Z,5.22
2019-04-30T02:56:40.897Z,5.26
2019-04-30T02:59:10.365Z,5.33
2019-04-30T03:01:40.212Z,5.36
2019-04-30T03:04:09.799Z,5.42
2019-04-30T03:06:40.191Z,5.54
2019-04-30T03:09:10.310Z,5.54
2019-04-30T03:11:40.566Z,5.45
2019-04-30T03:14:10.292Z,5.38
2019-04-30T03:16:59.891Z,5.32
2019-04-30T03:19:29.677Z,5.31
2019-04-30T03:22:02.657Z,5.23
2019-04-30T03:24:31.160Z,5.24
2019-04-30T03:26:59.647Z,5.22
2019-04-30T03:29:30.244Z,5.18
2019-04-30T03:32:02.505Z,5.23
2019-04-30T03:34:32.639Z,5.19
2019-04-30T03:37:01.737Z,4.94
2019-04-30T03:39:31.669Z,4.93
2019-04-30T03:41:59.707Z,4.83
2019-04-30T03:44:29.511Z,4.87
2019-04-30T03:46:59.279Z,4.85
2019-04-30T03:49:29.868Z,4.75
2019-04-30T03:51:59.813Z,4.72
2019-04-30T03:54:29.264Z,4.80
2019-04-30T03:57:00.728Z,4.88
2019-04-30T03:59:30.167Z,5.05
2019-04-30T04:02:03.574Z,5.15
2019-04-30T04:04:39.810Z,5.35
2019-04-30T04:07:26.535Z,5.16
2019-04-30T04:10:02.845Z,5.15
2019-04-30T04:12:31.317Z,4.86
2019-04-30T04:15:00.727Z,4.92
2019-04-30T04:17:31.482Z,5.05
2019-04-30T04:20:00.331Z,4.91
2019-04-30T04:22:30.590Z,5.04
2019-04-30T04:25:00.110Z,5.05
2019-04-30T04:27:30.112Z,5.02
2019-04-30T04:30:01.114Z,4.98
2019-04-30T04:32:30.707Z,5.14
2019-04-30T04:35:00.320Z,5.22
2019-04-30T04:37:30.127Z,5.24
2019-04-30T04:39:59.677Z,5.36
2019-04-30T04:42:32.490Z,5.38
2019-04-30T04:44:59.499Z,5.39
2019-04-30T04:47:30.942Z,5.48
2019-04-30T04:50:00.748Z,5.57
2019-04-30T04:52:31.385Z,5.65
2019-04-30T04:55:00.467Z,5.71
2019-04-30T04:57:30.465Z,5.67
2019-04-30T05:00:06.583Z,5.57
2019-04-30T05:02:36.786Z,5.67
2019-04-30T05:05:06.875Z,5.71
2019-04-30T05:07:35.373Z,5.72
2019-04-30T05:10:06.234Z,5.75
2019-04-30T05:12:37.300Z,5.48
2019-04-30T05:15:05.738Z,5.66
2019-04-30T05:17:34.233Z,5.70
2019-04-30T05:20:02.703Z,5.90
2019-04-30T05:22:31.199Z,5.91
2019-04-30T05:24:59.667Z,6.04
2019-04-30T05:27:28.159Z,6.08
2019-04-30T05:29:56.629Z,6.06
2019-04-30T05:32:25.219Z,5.96
2019-04-30T05:34:53.685Z,5.63
2019-04-30T05:37:22.473Z,5.66
2019-04-30T05:39:51.136Z,6.09
2019-04-30T05:42:19.620Z,6.14
2019-04-30T05:44:49.717Z,6.30
2019-04-30T05:47:19.559Z,6.33
2019-04-30T05:49:48.895Z,6.24
2019-04-30T05:52:19.944Z,6.49
2019-04-30T05:54:48.746Z,6.27
2019-04-30T05:57:19.584Z,6.46
2019-04-30T05:59:48.730Z,6.54
2019-04-30T06:02:19.356Z,6.63
2019-04-30T06:04:48.916Z,6.54
2019-04-30T06:07:18.891Z,6.30
2019-04-30T06:09:50.460Z,6.59
2019-04-30T06:12:20.599Z,6.62
2019-04-30T06:14:53.278Z,6.81
2019-04-30T06:17:32.034Z,6.95
2019-04-30T06:20:00.543Z,6.86
2019-04-30T06:22:29.484Z,6.97
2019-04-30T06:24:59.477Z,6.95
2019-04-30T06:27:29.181Z,7.14
2019-04-30T06:29:58.506Z,7.18
2019-04-30T06:32:27.080Z,7.15
2019-04-30T06:34:55.819Z,7.13
2019-04-30T06:37:24.666Z,7.26
2019-04-30T06:39:53.227Z,7.27
2019-04-30T06:42:21.731Z,7.36
2019-04-30T06:44:50.876Z,7.52
2019-04-30T06:47:32.121Z,7.42
2019-04-30T06:49:49.629Z,7.54
2019-04-30T06:52:22.742Z,7.76
2019-04-30T06:54:49.840Z,7.74
2019-04-30T06:57:19.870Z,7.67
2019-04-30T06:59:51.265Z,7.86
2019-04-30T07:02:19.668Z,8.16
2019-04-30T07:04:49.089Z,8.28
2019-04-30T07:07:21.403Z,8.45
2019-04-30T07:09:58.587Z,8.49
2019-04-30T07:12:36.695Z,8.39
2019-04-30T07:15:08.736Z,8.34
2019-04-30T07:17:40.562Z,8.53
2019-04-30T07:20:07.528Z,8.92
2019-04-30T07:22:40.792Z,9.17
2019-04-30T07:25:09.428Z,9.08
2019-04-30T07:27:39.933Z,8.81
2019-04-30T07:30:09.947Z,8.58
2019-04-30T07:32:38.723Z,8.65
2019-04-30T07:35:09.581Z,8.84
2019-04-30T07:37:39.180Z,9.08
2019-04-30T07:40:09.151Z,9.36
2019-04-30T07:42:44.441Z,9.39
2019-04-30T07:45:09.656Z,9.42
2019-04-30T07:47:39.543Z,9.84
2019-04-30T07:50:10.644Z,9.92
2019-04-30T07:52:57.705Z,9.62
2019-04-30T07:55:09.785Z,9.92
2019-04-30T07:57:40.406Z,9.61
2019-04-30T08:00:09.898Z,9.62
2019-04-30T08:02:43.540Z,10.28
2019-04-30T08:05:19.863Z,10.09
2019-04-30T08:07:49.016Z,9.14
2019-04-30T08:10:18.782Z,9.31
2019-04-30T08:12:49.985Z,8.96
2019-04-30T08:15:19.648Z,9.35
2019-04-30T08:18:02.343Z,9.93
2019-04-30T08:20:19.697Z,10.51
2019-04-30T08:22:49.378Z,10.43
2019-04-30T08:25:21.272Z,10.24
2019-04-30T08:27:49.271Z,10.52
2019-04-30T08:30:26.115Z,11.01
2019-04-30T08:32:49.949Z,11.32
2019-04-30T08:35:19.669Z,11.50
2019-04-30T08:37:49.746Z,11.16
2019-04-30T08:40:19.069Z,11.35
2019-04-30T08:42:49.574Z,10.79
2019-04-30T08:45:19.735Z,10.01
2019-04-30T08:47:49.283Z,10.70
2019-04-30T08:50:19.958Z,11.24
2019-04-30T08:52:49.907Z,11.51
2019-04-30T08:55:22.047Z,11.65
2019-04-30T08:57:49.981Z,11.67
2019-04-30T09:00:19.596Z,11.88
2019-04-30T09:02:49.191Z,11.15
2019-04-30T09:05:21.990Z,11.30
2019-04-30T09:07:50.475Z,11.53
2019-04-30T09:10:19.280Z,11.61
2019-04-30T09:12:49.547Z,11.61
2019-04-30T09:15:18.883Z,11.43
2019-04-30T09:17:58.901Z,10.46
2019-04-30T09:20:19.447Z,10.91
2019-04-30T09:22:49.615Z,11.26
2019-04-30T09:25:19.452Z,11.76
2019-04-30T09:27:48.776Z,12.14
2019-04-30T09:30:18.830Z,12.25
2019-04-30T09:32:47.601Z,12.71
2019-04-30T09:35:19.585Z,12.85
2019-04-30T09:37:49.617Z,13.00
2019-04-30T09:40:21.095Z,12.98
2019-04-30T09:42:48.832Z,12.91
2019-04-30T09:45:18.705Z,14.16
2019-04-30T09:47:47.355Z,13.64
2019-04-30T09:50:16.193Z,14.07
2019-04-30T09:52:45.024Z,15.43
2019-04-30T09:55:13.899Z,13.87
2019-04-30T09:57:42.402Z,15.25
2019-04-30T10:00:11.819Z,16.14
2019-04-30T10:02:40.388Z,16.24
2019-04-30T10:05:10.617Z,15.91
2019-04-30T10:07:39.885Z,16.44
2019-04-30T10:10:11.404Z,18.02
2019-04-30T10:12:40.135Z,17.29
2019-04-30T10:15:11.089Z,17.38
2019-04-30T10:17:41.233Z,17.61
2019-04-30T10:20:12.141Z,18.68
2019-04-30T10:22:40.711Z,19.00
2019-04-30T10:25:10.124Z,16.76
2019-04-30T10:27:39.095Z,16.72
2019-04-30T10:30:09.927Z,16.38
2019-04-30T10:32:38.422Z,14.94
2019-04-30T10:35:07.841Z,15.16
2019-04-30T10:37:36.412Z,13.92
2019-04-30T10:40:07.662Z,14.35
2019-04-30T10:42:36.252Z,14.63
2019-04-30T10:45:07.247Z,14.54
2019-04-30T10:47:35.760Z,14.78
2019-04-30T10:50:06.799Z,14.78
2019-04-30T10:52:35.307Z,15.02
2019-04-30T10:55:04.732Z,16.15
2019-04-30T10:57:33.236Z,16.31
2019-04-30T11:00:01.717Z,16.06
2019-04-30T11:02:31.237Z,16.74
2019-04-30T11:04:59.778Z,17.27
2019-04-30T11:07:28.802Z,17.66
2019-04-30T11:09:58.859Z,18.18
2019-04-30T11:12:29.214Z,19.61
2019-04-30T11:14:57.885Z,19.96
2019-04-30T11:17:26.665Z,20.60
2019-04-30T11:19:55.647Z,20.54
2019-04-30T11:22:24.382Z,20.97
2019-04-30T11:25:01.572Z,21.01
2019-04-30T11:27:23.525Z,19.29
2019-04-30T11:29:52.645Z,18.61
2019-04-30T11:32:23.276Z,18.05
2019-04-30T11:34:51.896Z,17.83
2019-04-30T11:37:20.625Z,17.42
2019-04-30T11:39:49.303Z,18.86
2019-04-30T11:42:17.950Z,18.91
2019-04-30T11:44:48.380Z,19.38
2019-04-30T11:47:22.843Z,19.99
2019-04-30T11:49:51.454Z,21.05
2019-04-30T11:52:20.063Z,20.68
2019-04-30T11:54:52.069Z,21.55
2019-04-30T11:57:18.918Z,21.20
2019-04-30T11:59:47.493Z,20.49
2019-04-30T12:02:33.729Z,20.71
2019-04-30T12:05:05.005Z,21.21
2019-04-30T12:07:50.646Z,22.00
2019-04-30T12:10:26.709Z,21.59
2019-04-30T12:12:55.187Z,21.02
2019-04-30T12:15:23.689Z,21.93
2019-04-30T12:17:52.261Z,22.61
2019-04-30T12:20:21.092Z,22.77
2019-04-30T12:22:49.567Z,24.49
2019-04-30T12:25:18.730Z,25.72
2019-04-30T12:27:48.802Z,24.81
2019-04-30T12:30:20.543Z,24.84
2019-04-30T12:32:49.344Z,24.80
2019-04-30T12:35:18.124Z,24.60
2019-04-30T12:37:46.613Z,25.18
2019-04-30T12:40:26.741Z,25.19
2019-04-30T12:42:45.448Z,26.98
2019-04-30T12:45:14.012Z,25.43
2019-04-30T12:47:44.126Z,24.91
2019-04-30T12:50:30.106Z,26.96
2019-04-30T12:53:16.461Z,24.64
2019-04-30T12:55:46.596Z,25.07
2019-04-30T12:58:15.103Z,25.91
2019-04-30T13:00:43.679Z,26.44
2019-04-30T13:03:12.252Z,26.85
2019-04-30T13:05:40.861Z,28.07
2019-04-30T13:08:10.172Z,26.38
2019-04-30T13:10:39.561Z,26.46
2019-04-30T13:13:08.854Z,25.38
2019-04-30T13:15:37.749Z,25.22
2019-04-30T13:18:06.220Z,25.40
2019-04-30T13:20:34.865Z,27.58
2019-04-30T13:23:03.388Z,28.47
2019-04-30T13:25:35.530Z,29.76
2019-04-30T13:28:07.540Z,29.20
2019-04-30T13:30:36.795Z,26.82
2019-04-30T13:33:06.991Z,25.16
2019-04-30T13:35:35.769Z,25.13
2019-04-30T13:38:21.281Z,26.90
2019-04-30T13:40:51.442Z,26.61
2019-04-30T13:43:21.563Z,24.43
2019-04-30T13:45:51.876Z,25.15
2019-04-30T13:48:20.291Z,26.91
2019-04-30T13:50:48.888Z,25.10
2019-04-30T13:53:18.628Z,25.60
2019-04-30T13:55:48.912Z,25.62
2019-04-30T13:58:17.570Z,26.53
2019-04-30T14:00:46.094Z,28.29
2019-04-30T14:03:32.011Z,28.55
2019-04-30T14:06:00.674Z,26.54
2019-04-30T14:08:30.796Z,27.21
2019-04-30T14:10:59.335Z,28.52
2019-04-30T14:13:27.966Z,29.17
2019-04-30T14:15:56.534Z,28.54
2019-04-30T14:18:30.784Z,30.54
2019-04-30T14:20:55.275Z,29.71
2019-04-30T14:23:23.745Z,27.89
2019-04-30T14:25:56.754Z,26.45
2019-04-30T14:28:22.529Z,25.42
2019-04-30T14:30:51.010Z,25.77
2019-04-30T14:33:25.878Z,25.52
2019-04-30T14:35:49.872Z,25.08
2019-04-30T14:38:19.052Z,25.23
2019-04-30T14:40:49.995Z,28.44
2019-04-30T14:43:22.551Z,29.14
2019-04-30T14:46:10.286Z,26.57
2019-04-30T14:48:44.479Z,27.27
2019-04-30T14:51:13.738Z,25.60
2019-04-30T14:53:49.320Z,25.09
2019-04-30T14:56:31.506Z,22.64
2019-04-30T14:59:04.226Z,21.27
2019-04-30T15:01:43.446Z,20.46
2019-04-30T15:04:11.998Z,19.10
2019-04-30T15:06:40.503Z,19.42
2019-04-30T15:09:10.323Z,21.21
2019-04-30T15:11:38.935Z,21.48
2019-04-30T15:14:07.412Z,21.31
2019-04-30T15:16:35.895Z,21.08
2019-04-30T15:19:04.489Z,21.35
2019-04-30T15:21:32.973Z,20.72
2019-04-30T15:24:03.106Z,19.88
2019-04-30T15:26:31.654Z,19.66
2019-04-30T15:29:00.285Z,19.80
2019-04-30T15:31:29.708Z,20.78
2019-04-30T15:34:03.314Z,22.84
2019-04-30T15:36:31.732Z,24.10
2019-04-30T15:39:01.883Z,25.78
2019-04-30T15:41:31.400Z,23.55
2019-04-30T15:44:00.177Z,21.61
2019-04-30T15:46:28.721Z,20.35
2019-04-30T15:48:57.225Z,19.65
2019-04-30T15:51:26.043Z,19.43
2019-04-30T15:53:54.550Z,18.96
2019-04-30T15:56:34.400Z,18.53
2019-04-30T15:59:10.951Z,18.58
2019-04-30T16:01:41.079Z,19.34
2019-04-30T16:04:11.213Z,20.86
2019-04-30T16:06:39.758Z,20.48
2019-04-30T16:09:20.258Z,20.11
2019-04-30T16:11:50.151Z,19.78
2019-04-30T16:14:23.261Z,19.31
2019-04-30T16:16:55.861Z,18.79
2019-04-30T16:19:24.362Z,18.85
2019-04-30T16:21:52.837Z,20.10
2019-04-30T16:24:21.347Z,21.20
2019-04-30T16:26:52.629Z,21.01
2019-04-30T16:29:20.975Z,20.48
2019-04-30T16:31:49.889Z,20.64
2019-04-30T16:34:18.413Z,20.83
2019-04-30T16:36:49.025Z,19.98
2019-04-30T16:39:18.671Z,19.34
2019-04-30T16:41:49.552Z,19.05
2019-04-30T16:44:19.158Z,19.26
2019-04-30T16:46:49.398Z,18.87
2019-04-30T16:49:18.052Z,18.26
2019-04-30T16:51:46.567Z,18.57
2019-04-30T16:54:15.080Z,18.79
2019-04-30T16:56:43.617Z,18.52
2019-04-30T16:59:22.525Z,18.34
2019-04-30T17:01:57.750Z,18.06
2019-04-30T17:04:25.924Z,17.71
2019-04-30T17:06:56.106Z,17.58
2019-04-30T17:09:29.209Z,17.79
2019-04-30T17:11:59.532Z,17.67
2019-04-30T17:14:30.693Z,17.50
2019-04-30T17:16:59.747Z,17.31
2019-04-30T17:19:29.217Z,17.02
2019-04-30T17:21:57.763Z,17.03
2019-04-30T17:24:26.271Z,17.38
2019-04-30T17:26:54.743Z,17.22
2019-04-30T17:29:23.246Z,17.49
2019-04-30T17:31:51.721Z,17.58
2019-04-30T17:34:20.227Z,17.61
2019-04-30T17:36:49.614Z,17.68
2019-04-30T17:39:20.129Z,17.66
2019-04-30T17:41:49.351Z,17.43
2019-04-30T17:44:18.664Z,16.90
2019-04-30T17:46:47.318Z,16.46
2019-04-30T17:49:15.788Z,16.06
2019-04-30T17:51:44.288Z,15.70
2019-04-30T17:54:14.409Z,15.35
2019-04-30T17:56:45.116Z,15.17
2019-04-30T17:59:13.921Z,14.98
2019-04-30T18:01:44.210Z,14.74
2019-04-30T18:04:12.751Z,14.56
2019-04-30T18:06:41.253Z,14.29
2019-04-30T18:09:11.078Z,14.04
2019-04-30T18:11:39.724Z,13.87
2019-04-30T18:14:08.817Z,13.71
2019-04-30T18:16:38.659Z,13.52
2019-04-30T18:19:09.022Z,13.37
2019-04-30T18:21:48.665Z,13.27
2019-04-30T18:24:19.515Z,13.09
2019-04-30T18:26:58.690Z,12.94
2019-04-30T18:29:27.163Z,12.82
2019-04-30T18:31:55.667Z,12.64
2019-04-30T18:34:24.147Z,12.55
2019-04-30T18:36:52.646Z,12.40
2019-04-30T18:39:21.120Z,12.26
2019-04-30T18:41:49.689Z,12.25
2019-04-30T18:44:19.551Z,12.17
2019-04-30T18:46:49.109Z,12.07
2019-04-30T18:49:18.744Z,12.00
2019-04-30T18:51:49.239Z,11.83
2019-04-30T18:54:18.381Z,11.71
2019-04-30T18:56:48.937Z,11.58
2019-04-30T18:59:19.513Z,11.56
2019-04-30T19:01:47.877Z,11.57
2019-04-30T19:04:16.359Z,11.58
2019-04-30T19:06:44.930Z,11.57
2019-04-30T19:09:24.126Z,11.62
2019-04-30T19:12:11.226Z,11.53
2019-04-30T19:14:49.145Z,11.39
2019-04-30T19:17:29.554Z,11.31
2019-04-30T19:20:14.850Z,11.47
2019-04-30T19:22:43.457Z,11.48
2019-04-30T19:25:12.980Z,11.55
2019-04-30T19:27:41.748Z,11.56
2019-04-30T19:30:10.572Z,11.67
2019-04-30T19:32:39.199Z,11.63
2019-04-30T19:35:09.069Z,11.54
2019-04-30T19:37:38.613Z,11.43
2019-04-30T19:40:08.968Z,11.50
2019-04-30T19:42:39.432Z,11.57
2019-04-30T19:45:10.275Z,11.76
2019-04-30T19:47:39.066Z,11.88
2019-04-30T19:50:09.399Z,11.78
2019-04-30T19:52:38.088Z,11.75
2019-04-30T19:55:07.004Z,11.81
2019-04-30T19:57:35.504Z,11.70
2019-04-30T20:00:04.892Z,11.62
2019-04-30T20:02:33.398Z,11.61
2019-04-30T20:05:01.899Z,11.55
2019-04-30T20:07:30.382Z,11.49
2019-04-30T20:10:03.637Z,11.37
2019-04-30T20:12:29.169Z,11.30
2019-04-30T20:14:57.638Z,11.14
2019-04-30T20:17:26.138Z,10.92
2019-04-30T20:19:54.613Z,10.89
2019-04-30T20:22:23.343Z,10.70
2019-04-30T20:24:51.970Z,10.51
2019-04-30T20:27:20.476Z,10.45
2019-04-30T20:29:51.621Z,10.39
2019-04-30T20:32:27.499Z,10.39
2019-04-30T20:34:49.445Z,10.34
2019-04-30T20:37:19.652Z,9.94
2019-04-30T20:39:49.837Z,9.96
2019-04-30T20:42:18.346Z,9.95
2019-04-30T20:44:48.879Z,9.97
2019-04-30T20:47:18.426Z,9.96
2019-04-30T20:49:49.002Z,9.89
2019-04-30T20:52:20.402Z,9.62
2019-04-30T20:54:48.853Z,9.58
2019-04-30T20:57:19.835Z,9.62
2019-04-30T20:59:48.756Z,9.36
2019-04-30T21:02:18.540Z,9.22
2019-04-30T21:04:47.630Z,9.09
2019-04-30T21:07:16.104Z,8.88
2019-04-30T21:09:44.607Z,8.59
2019-04-30T21:12:13.082Z,8.56
2019-04-30T21:14:41.584Z,8.53
2019-04-30T21:17:10.061Z,8.23
2019-04-30T21:19:38.568Z,8.11
2019-04-30T21:22:07.146Z,8.04
2019-04-30T21:24:35.650Z,8.05
2019-04-30T21:27:04.127Z,8.08
2019-04-30T21:29:32.628Z,8.10
2019-04-30T21:32:08.703Z,8.08
2019-04-30T21:34:48.259Z,7.97
2019-04-30T21:37:16.731Z,7.91
2019-04-30T21:39:45.294Z,7.75
2019-04-30T21:42:13.766Z,7.92
2019-04-30T21:44:42.265Z,7.87
2019-04-30T21:47:10.744Z,7.77
2019-04-30T21:49:39.243Z,7.67
2019-04-30T21:52:07.721Z,7.65
2019-04-30T21:54:36.218Z,7.57
2019-04-30T21:57:04.696Z,7.54
2019-04-30T21:59:33.202Z,7.72
2019-04-30T22:02:01.916Z,7.49
2019-04-30T22:04:30.414Z,7.45
2019-04-30T22:06:59.512Z,7.38
2019-04-30T22:09:28.232Z,7.28
2019-04-30T22:11:56.706Z,7.32
2019-04-30T22:14:25.207Z,7.16
2019-04-30T22:16:53.684Z,7.07
2019-04-30T22:19:22.181Z,7.08
2019-04-30T22:21:50.655Z,7.11
2019-04-30T22:24:19.158Z,7.11
2019-04-30T22:26:47.635Z,7.06
2019-04-30T22:29:16.138Z,6.98
2019-04-30T22:31:44.618Z,6.98
2019-04-30T22:34:13.100Z,6.89
2019-04-30T22:36:43.247Z,6.90
2019-04-30T22:39:19.930Z,6.85
2019-04-30T22:41:48.701Z,6.75
2019-04-30T22:44:17.186Z,6.63
2019-04-30T22:46:45.693Z,6.58
2019-04-30T22:49:14.172Z,6.54
2019-04-30T22:51:42.674Z,6.44
2019-04-30T22:54:11.210Z,6.28
2019-04-30T22:56:39.710Z,6.30
2019-04-30T22:59:08.184Z,6.22
2019-04-30T23:01:38.327Z,6.22
2019-04-30T23:04:11.123Z,6.13
2019-04-30T23:06:39.692Z,5.98
2019-04-30T23:09:11.552Z,5.97
2019-04-30T23:11:40.124Z,5.74
2019-04-30T23:14:08.594Z,5.72
2019-04-30T23:16:37.165Z,5.74
2019-04-30T23:19:05.650Z,5.64
2019-04-30T23:21:34.149Z,5.49
2019-04-30T23:24:02.634Z,5.51
2019-04-30T23:26:31.142Z,5.29
2019-04-30T23:28:59.622Z,5.33
2019-04-30T23:31:28.131Z,5.41
2019-04-30T23:33:56.608Z,5.36
2019-04-30T23:36:25.117Z,5.43
2019-04-30T23:38:53.592Z,5.42
2019-04-30T23:41:22.570Z,5.35
2019-04-30T23:43:51.054Z,5.32
2019-04-30T23:46:19.554Z,5.31
2019-04-30T23:48:48.037Z,5.33
2019-04-30T23:51:16.544Z,5.53
2019-04-30T23:53:45.032Z,5.57
2019-04-30T23:56:13.544Z,5.30
2019-04-30T23:58:42.021Z,5.40
